createdAt,value
2022-12-11T01:52:15.687Z,70.62
2022-12-11T01:54:44.021Z,70.59
2022-12-11T01:57:14.009Z,70.86
2022-12-11T01:59:45.200Z,71.04
2022-12-11T02:02:27.057Z,70.57
2022-12-11T02:04:56.764Z,70.75
2022-12-11T02:07:24.285Z,70.80
2022-12-11T02:09:51.316Z,70.48
2022-12-11T02:12:37.059Z,70.12
2022-12-11T02:15:29.941Z,70.13
2022-12-11T02:18:34.189Z,70.02
2022-12-11T02:21:11.157Z,69.74
2022-12-11T02:23:59.362Z,69.64
2022-12-11T02:26:47.754Z,70.33
2022-12-11T02:29:35.093Z,70.29
2022-12-11T02:32:09.402Z,70.17
2022-12-11T02:35:03.090Z,69.39
2022-12-11T02:37:33.082Z,69.80
2022-12-11T02:40:00.300Z,69.69
2022-12-11T02:42:31.819Z,69.68
2022-12-11T02:45:01.509Z,70.01
2022-12-11T02:47:33.431Z,69.84
2022-12-11T02:50:03.948Z,69.69
2022-12-11T02:52:33.299Z,69.42
2022-12-11T02:55:03.029Z,69.46
2022-12-11T02:57:45.360Z,69.72
2022-12-11T03:00:13.454Z,69.67
2022-12-11T03:02:42.314Z,69.33
2022-12-11T03:05:11.386Z,69.57
2022-12-11T03:07:41.017Z,69.55
2022-12-11T03:10:10.993Z,69.61
2022-12-11T03:12:40.973Z,69.89
2022-12-11T03:15:14.071Z,69.62
2022-12-11T03:18:00.960Z,69.67
2022-12-11T03:20:40.013Z,69.49
2022-12-11T03:23:44.051Z,69.66
2022-12-11T03:26:13.957Z,69.15
2022-12-11T03:28:40.871Z,69.52
2022-12-11T03:31:12.197Z,69.39
2022-12-11T03:33:43.934Z,69.54
2022-12-11T03:36:15.302Z,69.52
2022-12-11T03:38:56.702Z,68.95
2022-12-11T03:41:26.133Z,68.80
2022-12-11T03:43:56.594Z,69.20
2022-12-11T03:46:29.801Z,69.18
2022-12-11T03:49:02.412Z,69.56
2022-12-11T03:51:32.621Z,69.40
2022-12-11T03:54:00.430Z,69.28
2022-12-11T03:56:30.166Z,69.16
2022-12-11T03:58:57.197Z,69.36
2022-12-11T04:01:24.346Z,69.43
2022-12-11T04:03:51.381Z,68.99
2022-12-11T04:06:18.709Z,69.12
2022-12-11T04:08:45.752Z,68.93
2022-12-11T04:11:31.210Z,69.04
2022-12-11T04:14:16.730Z,69.08
2022-12-11T04:16:43.748Z,69.16
2022-12-11T04:19:30.693Z,68.84
2022-12-11T04:22:16.503Z,68.96
2022-12-11T04:24:43.585Z,69.03
2022-12-11T04:27:10.533Z,68.72
2022-12-11T04:29:37.481Z,69.22
2022-12-11T04:32:04.671Z,68.77
2022-12-11T04:34:31.609Z,68.80
2022-12-11T04:36:58.698Z,69.00
2022-12-11T04:39:25.608Z,68.73
2022-12-11T04:41:52.637Z,69.10
2022-12-11T04:44:22.260Z,68.93
2022-12-11T04:46:49.284Z,68.78
2022-12-11T04:49:16.246Z,68.92
2022-12-11T04:51:43.867Z,68.93
2022-12-11T04:54:10.752Z,68.25
2022-12-11T04:56:37.721Z,68.27
2022-12-11T04:59:04.761Z,68.62
2022-12-11T05:01:31.970Z,68.87
2022-12-11T05:04:02.121Z,68.76
2022-12-11T05:06:29.108Z,68.75
2022-12-11T05:08:56.164Z,68.77
2022-12-11T05:11:23.142Z,68.36
2022-12-11T05:13:50.424Z,68.36
2022-12-11T05:16:17.891Z,68.60
2022-12-11T05:18:45.117Z,68.59
2022-12-11T05:21:14.615Z,68.67
2022-12-11T05:23:42.470Z,68.82
2022-12-11T05:26:14.556Z,68.79
2022-12-11T05:28:42.276Z,68.53
2022-12-11T05:31:14.266Z,68.15
2022-12-11T05:33:41.797Z,68.45
2022-12-11T05:36:10.357Z,68.64
2022-12-11T05:38:37.249Z,68.61
2022-12-11T05:41:07.791Z,68.95
2022-12-11T05:43:36.669Z,68.68
2022-12-11T05:46:10.589Z,68.40
2022-12-11T05:48:38.614Z,68.46
2022-12-11T05:51:06.803Z,67.99
2022-12-11T05:53:33.943Z,67.70
2022-12-11T05:56:06.436Z,67.71
2022-12-11T05:58:34.730Z,67.74
2022-12-11T06:01:02.601Z,67.98
2022-12-11T06:03:29.665Z,67.60
2022-12-11T06:06:20.455Z,67.89
2022-12-11T06:08:53.260Z,67.47
2022-12-11T06:11:23.982Z,67.64
2022-12-11T06:13:52.395Z,67.23
2022-12-11T06:16:19.994Z,67.85
2022-12-11T06:18:47.913Z,67.59
2022-12-11T06:21:20.505Z,67.54
2022-12-11T06:23:49.280Z,67.26
2022-12-11T06:26:17.701Z,67.11
2022-12-11T06:28:45.221Z,67.11
2022-12-11T06:31:15.601Z,67.35
2022-12-11T06:33:43.028Z,67.53
2022-12-11T06:36:14.315Z,67.32
2022-12-11T06:38:41.804Z,66.93
2022-12-11T06:41:09.560Z,67.07
2022-12-11T06:43:38.473Z,67.50
2022-12-11T06:46:13.353Z,67.53
2022-12-11T06:48:42.394Z,67.08
2022-12-11T06:51:12.691Z,67.58
2022-12-11T06:53:40.807Z,67.78
2022-12-11T06:56:13.439Z,67.17
2022-12-11T06:58:41.527Z,67.21
2022-12-11T07:01:26.200Z,67.14
2022-12-11T07:03:54.734Z,66.74
2022-12-11T07:06:22.398Z,67.05
2022-12-11T07:08:49.536Z,66.91
2022-12-11T07:11:17.754Z,67.09
2022-12-11T07:13:44.953Z,67.15
2022-12-11T07:16:13.743Z,67.08
2022-12-11T07:18:43.719Z,66.64
2022-12-11T07:21:13.178Z,66.69
2022-12-11T07:23:40.819Z,66.45
2022-12-11T07:26:10.891Z,66.39
2022-12-11T07:28:38.290Z,66.42
2022-12-11T07:31:14.637Z,66.52
2022-12-11T07:33:42.565Z,66.66
2022-12-11T07:36:11.006Z,66.12
2022-12-11T07:38:38.689Z,66.38
2022-12-11T07:41:07.707Z,66.16
2022-12-11T07:43:35.461Z,66.30
2022-12-11T07:46:04.583Z,66.43
2022-12-11T07:48:40.588Z,66.11
2022-12-11T07:51:12.736Z,66.14
2022-12-11T07:53:39.778Z,66.21
2022-12-11T07:56:07.545Z,66.29
2022-12-11T07:58:35.079Z,66.13
2022-12-11T08:01:02.092Z,65.87
2022-12-11T08:03:29.115Z,65.64
2022-12-11T08:05:56.036Z,66.17
2022-12-11T08:08:26.248Z,66.14
2022-12-11T08:10:53.606Z,65.86
2022-12-11T08:13:20.523Z,65.69
2022-12-11T08:15:49.682Z,65.69
2022-12-11T08:18:16.611Z,65.48
2022-12-11T08:20:43.625Z,65.29
2022-12-11T08:23:11.712Z,65.93
2022-12-11T08:25:38.798Z,65.35
2022-12-11T08:28:05.826Z,65.64
2022-12-11T08:30:33.081Z,65.45
2022-12-11T08:33:00.114Z,65.09
2022-12-11T08:35:27.334Z,64.93
2022-12-11T08:37:54.243Z,65.76
2022-12-11T08:40:21.298Z,65.66
2022-12-11T08:42:48.225Z,65.81
2022-12-11T08:45:16.256Z,66.04
2022-12-11T08:47:43.300Z,65.81
2022-12-11T08:50:10.504Z,65.41
2022-12-11T08:52:37.380Z,64.83
2022-12-11T08:55:04.722Z,65.36
2022-12-11T08:57:31.688Z,65.37
2022-12-11T08:59:58.755Z,65.05
2022-12-11T09:02:25.712Z,64.35
2022-12-11T09:04:52.668Z,65.23
2022-12-11T09:07:19.737Z,64.87
2022-12-11T09:09:46.775Z,64.23
2022-12-11T09:12:16.069Z,64.42
2022-12-11T09:14:43.152Z,64.20
2022-12-11T09:17:10.318Z,64.62
2022-12-11T09:19:39.718Z,64.32
2022-12-11T09:22:06.874Z,64.56
2022-12-11T09:24:33.774Z,63.92
2022-12-11T09:27:00.904Z,63.63
2022-12-11T09:29:31.688Z,64.36
2022-12-11T09:31:59.095Z,64.07
2022-12-11T09:34:29.368Z,64.37
2022-12-11T09:36:57.915Z,63.81
2022-12-11T09:39:25.265Z,63.48
2022-12-11T09:42:10.897Z,63.70
2022-12-11T09:45:01.392Z,63.83
2022-12-11T09:47:57.690Z,64.01
2022-12-11T09:50:28.072Z,63.90
2022-12-11T09:53:07.034Z,63.61
2022-12-11T09:55:59.322Z,63.82
2022-12-11T09:58:26.108Z,64.17
2022-12-11T10:01:06.032Z,64.34
2022-12-11T10:03:38.888Z,64.19
2022-12-11T10:06:14.995Z,63.97
2022-12-11T10:08:42.013Z,64.12
2022-12-11T10:11:15.210Z,64.59
2022-12-11T10:13:54.394Z,63.77
2022-12-11T10:16:32.405Z,63.85
2022-12-11T10:19:00.711Z,64.00
2022-12-11T10:21:36.869Z,64.06
2022-12-11T15:28:44.558Z,73.66
2022-12-11T15:31:26.946Z,73.94
2022-12-11T15:33:54.342Z,74.04
2022-12-11T15:36:32.134Z,73.92
2022-12-11T15:38:59.292Z,74.24
2022-12-11T15:41:26.579Z,77.53
2022-12-11T15:43:58.884Z,82.76
2022-12-11T15:46:26.827Z,78.89
2022-12-11T15:48:55.562Z,75.05
2022-12-11T15:51:23.343Z,75.07
2022-12-11T15:53:50.458Z,72.60
2022-12-11T15:56:18.041Z,71.12
2022-12-11T15:58:47.795Z,71.37
2022-12-11T16:01:14.803Z,71.87
2022-12-11T16:03:43.867Z,72.81
2022-12-11T16:06:14.084Z,73.18
2022-12-11T16:08:41.117Z,72.93
2022-12-11T16:11:12.561Z,73.71
2022-12-11T16:13:40.064Z,74.29
2022-12-11T16:16:07.251Z,75.28
2022-12-11T16:18:37.845Z,75.06
2022-12-11T16:21:06.599Z,75.46
2022-12-11T16:23:33.693Z,75.59
2022-12-11T16:26:07.019Z,75.76
2022-12-11T16:28:34.135Z,75.56
2022-12-11T16:31:02.107Z,76.17
2022-12-11T16:33:29.032Z,75.80
2022-12-11T16:35:56.141Z,75.74
2022-12-11T16:38:23.027Z,75.98
2022-12-11T16:40:50.086Z,75.95
2022-12-11T16:43:16.991Z,76.12
2022-12-11T16:45:43.959Z,76.02
2022-12-11T16:48:11.100Z,76.75
2022-12-11T16:50:40.494Z,76.67
2022-12-11T16:53:07.556Z,76.91
2022-12-11T16:55:34.452Z,76.33
2022-12-11T16:58:01.563Z,76.41
2022-12-11T17:00:30.073Z,75.88
2022-12-11T17:02:57.519Z,76.08
2022-12-11T17:05:25.100Z,76.34
2022-12-11T17:07:52.149Z,77.17
2022-12-11T17:10:19.324Z,76.25
2022-12-11T17:12:46.377Z,76.50
2022-12-11T17:15:13.473Z,76.95
2022-12-11T17:17:43.186Z,76.80
2022-12-11T17:20:11.305Z,77.25
2022-12-11T17:22:39.051Z,77.07
2022-12-11T17:25:06.301Z,76.42
2022-12-11T17:27:33.477Z,76.90
2022-12-11T17:30:01.116Z,77.02
2022-12-11T17:32:28.981Z,77.14
2022-12-11T17:34:56.296Z,77.05
2022-12-11T17:37:23.727Z,77.06
2022-12-11T17:39:53.128Z,76.83
2022-12-11T17:42:20.473Z,77.96
2022-12-11T17:44:50.327Z,77.81
2022-12-11T17:47:18.547Z,78.12
2022-12-11T17:49:46.026Z,77.60
2022-12-11T17:52:13.734Z,77.93
2022-12-11T17:54:41.020Z,78.47
2022-12-11T17:57:08.355Z,78.46
2022-12-11T17:59:36.211Z,78.44
2022-12-11T18:02:03.345Z,77.89
2022-12-11T18:04:30.356Z,77.69
2022-12-11T18:06:57.398Z,77.49
2022-12-11T18:09:24.386Z,77.59
2022-12-11T18:11:52.099Z,77.32
2022-12-11T18:14:19.293Z,77.24
2022-12-11T18:16:46.474Z,77.54
2022-12-11T18:19:14.695Z,77.32
2022-12-11T18:21:45.909Z,77.11
2022-12-11T18:24:13.624Z,76.85
2022-12-11T18:26:43.032Z,76.75
2022-12-11T18:29:10.343Z,77.03
2022-12-11T18:31:42.645Z,76.79
2022-12-11T18:34:11.224Z,76.41
2022-12-11T18:36:38.744Z,76.68
2022-12-11T18:39:06.063Z,76.12
2022-12-11T18:41:33.491Z,75.91
2022-12-11T18:44:06.651Z,75.81
2022-12-11T18:46:37.888Z,75.65
2022-12-11T18:49:08.672Z,75.77
2022-12-11T18:51:36.248Z,75.41
2022-12-11T18:54:03.700Z,75.63
2022-12-11T18:56:31.820Z,75.24
2022-12-11T18:58:59.149Z,75.46
2022-12-11T19:01:30.295Z,75.22
2022-12-11T19:04:04.174Z,75.19
2022-12-11T19:06:35.803Z,74.83
2022-12-11T19:09:04.730Z,75.19
2022-12-11T19:11:34.535Z,75.17
2022-12-11T19:14:02.435Z,74.72
2022-12-11T19:16:33.928Z,75.00
2022-12-11T19:19:06.749Z,74.42
2022-12-11T19:21:35.911Z,75.38
2022-12-11T19:24:04.724Z,75.02
2022-12-11T19:26:31.918Z,75.42
2022-12-11T19:29:00.498Z,75.11
2022-12-11T19:31:30.051Z,75.31
2022-12-11T19:33:57.774Z,75.33
2022-12-11T19:36:27.619Z,75.46
2022-12-11T19:38:59.472Z,75.24
2022-12-11T19:41:30.138Z,75.77
2022-12-11T19:44:01.278Z,75.97
2022-12-11T19:46:29.774Z,75.32
2022-12-11T19:48:58.806Z,75.58
2022-12-11T19:51:38.774Z,75.61
2022-12-11T19:54:08.022Z,76.36
2022-12-11T19:56:36.114Z,76.01
2022-12-11T19:59:05.686Z,75.82
2022-12-11T20:01:34.741Z,75.67
2022-12-11T20:04:14.124Z,75.61
2022-12-11T20:06:45.180Z,75.85
2022-12-11T20:09:18.239Z,75.44
2022-12-11T20:11:48.076Z,75.55
2022-12-11T20:14:22.092Z,75.29
2022-12-11T20:19:38.324Z,75.44
2022-12-11T20:22:05.745Z,75.54
2022-12-11T20:24:33.102Z,75.82
2022-12-11T20:27:00.313Z,75.93
2022-12-11T20:29:28.585Z,76.06
2022-12-11T20:31:55.601Z,76.35
2022-12-11T20:34:22.690Z,76.11
2022-12-11T20:36:52.685Z,76.28
2022-12-11T20:39:19.791Z,76.19
2022-12-11T20:41:48.937Z,76.27
2022-12-11T20:44:17.229Z,76.45
2022-12-11T20:46:44.176Z,76.50
2022-12-11T20:49:13.269Z,77.11
2022-12-11T20:51:40.536Z,77.35
2022-12-11T20:54:07.867Z,77.95
2022-12-11T20:56:34.944Z,78.04
2022-12-11T20:59:01.978Z,77.74
2022-12-11T21:01:32.148Z,77.76
2022-12-11T21:04:00.120Z,77.32
2022-12-11T21:06:33.182Z,78.02
2022-12-11T21:09:02.365Z,77.94
2022-12-11T21:11:29.880Z,77.70
2022-12-11T21:13:57.392Z,77.80
2022-12-11T21:16:25.156Z,77.95
2022-12-11T21:18:55.596Z,77.81
2022-12-11T21:21:22.647Z,77.86
2022-12-11T21:23:49.823Z,77.83
2022-12-11T21:26:17.272Z,77.82
2022-12-11T21:28:44.306Z,77.84
2022-12-11T21:31:17.046Z,77.83
2022-12-11T21:33:44.323Z,77.53
2022-12-11T21:36:14.140Z,77.58
2022-12-11T21:38:43.815Z,78.27
2022-12-11T21:41:14.517Z,78.81
2022-12-11T21:44:03.258Z,78.58
2022-12-11T21:46:29.991Z,78.44
2022-12-11T21:48:57.076Z,79.04
2022-12-11T21:51:35.940Z,78.83
2022-12-11T21:54:06.962Z,79.39
2022-12-11T21:56:34.094Z,79.24
2022-12-11T21:59:01.742Z,79.30
2022-12-11T22:01:36.179Z,79.67
2022-12-11T22:04:04.988Z,79.52
2022-12-11T22:06:32.406Z,79.37
2022-12-11T22:08:59.341Z,82.45
2022-12-11T22:11:29.564Z,83.17
2022-12-11T22:13:56.807Z,80.73
2022-12-11T22:16:24.357Z,79.07
2022-12-11T22:18:53.202Z,77.85
2022-12-11T22:21:20.733Z,78.28
2022-12-11T22:23:47.781Z,78.74
2022-12-11T22:26:23.799Z,78.94
2022-12-11T22:28:51.293Z,79.49
2022-12-11T22:31:21.470Z,79.94
2022-12-11T22:33:50.131Z,79.87
2022-12-11T22:36:20.602Z,80.31
2022-12-11T22:41:32.346Z,81.01
2022-12-11T22:43:59.980Z,81.46
2022-12-11T22:46:29.576Z,81.18
2022-12-11T22:49:16.019Z,81.44
2022-12-11T22:51:46.130Z,81.46
2022-12-11T22:54:13.138Z,81.70
2022-12-11T22:56:40.129Z,82.23
2022-12-11T22:59:07.685Z,82.14
2022-12-11T23:01:34.914Z,82.01
2022-12-11T23:04:01.857Z,82.12
2022-12-11T23:06:28.945Z,82.06
2022-12-11T23:08:59.880Z,82.15
2022-12-11T23:11:30.521Z,82.31
2022-12-11T23:13:58.131Z,82.18
2022-12-11T23:16:27.101Z,82.24
2022-12-11T23:18:55.547Z,82.38
2022-12-11T23:21:22.576Z,82.20
2022-12-11T23:23:50.265Z,82.00
2022-12-11T23:26:18.963Z,81.54
2022-12-11T23:28:46.951Z,81.21
2022-12-11T23:31:15.113Z,81.40
2022-12-11T23:33:42.507Z,81.15
2022-12-11T23:36:12.329Z,80.69
2022-12-11T23:38:40.007Z,80.89
2022-12-11T23:41:39.251Z,81.10
2022-12-11T23:44:06.316Z,81.13
2022-12-11T23:46:35.615Z,81.02
2022-12-11T23:49:05.310Z,80.98
2022-12-11T23:51:32.270Z,81.17
2022-12-11T23:53:59.317Z,81.42
2022-12-11T23:56:28.295Z,81.65
2022-12-11T23:58:56.659Z,82.09
